Data for 09/27/2013

Time Sea-Level Adjusted Pressure Absolute Pressure Temperature Relative Humidity Dew Point   
(mb) (inHg) (mb) (inHg) (C) (F) (%) (C) (F)
00:05 1017 30.03 846 24.98 2.3 36.2 84 -0.1 31.8
00:10 1017 30.03 846 24.98 2.4 36.3 83 -0.2 31.7
00:15 1017 30.03 846 24.98 2.4 36.2 84 -0 31.9
00:20 1017 30.03 846 24.98 2.3 36.1 83 -0.2 31.6
00:25 1017 30.03 846 24.98 2.2 36 85 -0 31.9
00:30 1017 30.03 846 24.98 2.2 36 83 -0.3 31.5
00:35 1017 30.03 846 24.98 2.2 36 84 -0.2 31.6
00:40 1017 30.03 846 24.98 2.2 36 83 -0.4 31.4
00:45 1017 30.03 846 24.98 2.2 36 83 -0.3 31.4
00:50 1017 30.03 846 24.98 2.2 36 83 -0.3 31.4
00:55 1017 30.03 847 25.01 2.2 36 83 -0.4 31.2
01:00 1017 30.03 847 25.01 2.2 36 82 -0.5 31.1
01:05 1017 30.03 846 24.98 2.2 35.9 83 -0.4 31.3
01:10 1017 30.03 846 24.98 2.2 36 83 -0.4 31.3
01:15 1017 30.03 846 24.98 2.2 36 84 -0.2 31.6
01:20 1017 30.03 846 24.98 2.2 35.9 85 -0.1 31.8
01:25 1017 30.03 846 24.98 2 35.7 84 -0.3 31.4
01:30 1017 30.03 846 24.98 2 35.7 83 -0.6 31
01:35 1017 30.03 847 25.01 2.1 35.8 83 -0.5 31.1
01:40 1017 30.03 846 24.98 2.2 36 82 -0.5 31
01:45 1017 30.03 846 24.98 2.2 35.9 83 -0.5 31.2
01:50 1017 30.03 846 24.98 2.2 36 82 -0.6 31
01:55 1017 30.03 846 24.98 2.3 36.1 82 -0.4 31.3
02:00 1017 30.03 846 24.98 2.2 36 83 -0.4 31.3
02:05 1017 30.03 846 24.98 2.2 36 83 -0.4 31.2
02:10 1017 30.03 846 24.98 2.2 35.9 83 -0.5 31.1
02:15 1017 30.03 846 24.98 2.2 35.9 82 -0.6 30.9
02:20 1017 30.03 846 24.98 2.2 35.9 82 -0.6 30.9
02:25 1017 30.03 846 24.98 2.2 35.9 83 -0.5 31.1
02:30 1017 30.03 846 24.98 2.2 36 82 -0.5 31
02:35 1017 30.03 846 24.98 2.2 36 82 -0.5 31.1
02:40 1017 30.03 846 24.98 2.2 36 83 -0.4 31.4
02:45 1017 30.03 846 24.98 2.3 36.1 83 -0.4 31.4
02:50 1017 30.03 846 24.98 2.2 36 83 -0.5 31.2
02:55 1017 30.03 846 24.98 2.1 35.8 83 -0.4 31.2
03:00 1017 30.03 846 24.98 2.1 35.7 84 -0.4 31.3
03:05 1017 30.03 846 24.98 2 35.7 84 -0.4 31.4
03:10 1017 30.03 846 24.98 2 35.6 84 -0.4 31.3
03:15 1017 30.03 846 24.98 1.9 35.4 85 -0.4 31.2
03:20 1017 30.03 846 24.98 1.9 35.4 85 -0.4 31.2
03:25 1017 30.03 846 24.98 1.8 35.3 85 -0.4 31.2
03:30 1017 30.03 846 24.98 1.8 35.3 85 -0.5 31.1
03:35 1017 30.03 846 24.98 1.8 35.3 85 -0.4 31.2
03:40 1017 30.03 846 24.98 1.8 35.3 85 -0.5 31.1
03:45 1017 30.03 846 24.98 1.8 35.2 85 -0.5 31.2
03:50 1017 30.03 846 24.98 1.8 35.2 85 -0.5 31.1
03:55 1017 30.03 846 24.98 1.8 35.3 85 -0.5 31.1
04:00 1017 30.03 846 24.98 1.8 35.3 85 -0.5 31.1
04:05 1017 30.03 846 24.98 1.8 35.2 84 -0.6 31
04:10 1017 30.03 846 24.98 1.8 35.2 85 -0.4 31.2
04:15 1017 30.03 846 24.98 1.8 35.2 85 -0.5 31.2
04:20 1017 30.03 846 24.98 1.8 35.2 85 -0.5 31.2
04:25 1017 30.03 846 24.98 1.8 35.2 85 -0.5 31.1
04:30 1017 30.03 846 24.98 1.8 35.2 85 -0.4 31.2
04:35 1017 30.03 846 24.98 1.8 35.3 85 -0.5 31.2
04:40 1017 30.03 846 24.98 1.8 35.3 85 -0.4 31.2
04:45 1017 30.03 846 24.98 1.8 35.3 84 -0.5 31
04:50 1017 30.03 846 24.98 1.8 35.2 84 -0.6 30.9
04:55 1017 30.03 846 24.98 1.8 35.3 84 -0.6 31
05:00 1017 30.03 846 24.98 1.8 35.3 85 -0.5 31.1
05:05 1017 30.03 846 24.98 1.9 35.3 84 -0.5 31.1
05:10 1017 30.03 846 24.98 1.9 35.3 85 -0.5 31.2
05:15 1017 30.03 846 24.98 1.8 35.3 85 -0.4 31.4
05:20 1017 30.03 846 24.98 1.7 35.1 87 -0.3 31.5
05:25 1017 30.03 846 24.98 1.5 34.7 88 -0.3 31.4
05:30 1017 30.03 846 24.98 1.4 34.5 88 -0.4 31.4
05:35 1017 30.03 846 24.98 1.4 34.6 88 -0.4 31.4
05:40 1017 30.03 846 24.98 1.4 34.5 88 -0.3 31.4
05:45 1017 30.03 846 24.98 1.4 34.5 88 -0.4 31.4
05:50 1017 30.03 846 24.98 1.4 34.6 88 -0.3 31.4
05:55 1017 30.03 846 24.98 1.5 34.7 88 -0.4 31.4
06:00 1017 30.03 846 24.98 1.5 34.7 88 -0.4 31.3
06:05 1017 30.03 847 25.01 1.5 34.7 88 -0.4 31.4
06:10 1017 30.03 847 25.01 1.5 34.7 87 -0.4 31.3
06:15 1017 30.03 847 25.01 1.4 34.6 88 -0.4 31.3
06:20 1017 30.03 847 25.01 1.5 34.7 88 -0.3 31.4
06:25 1017 30.03 847 25.01 1.6 34.8 87 -0.3 31.4
06:30 1017 30.03 847 25.01 1.6 34.8 88 -0.3 31.5
06:35 1017 30.03 847 25.01 1.7 35 87 -0.2 31.6
06:40 1017 30.03 847 25.01 1.7 35 88 -0.2 31.7
06:45 1018 30.06 847 25.01 1.8 35.2 87 -0.1 31.8
06:50 1018 30.06 847 25.01 1.8 35.3 87 -0.1 31.8
06:55 1018 30.06 847 25.01 1.9 35.4 87 -0 31.9
07:00 1018 30.06 847 25.01 1.9 35.5 87 -0 32
07:05 1018 30.06 847 25.01 1.9 35.4 86 -0.1 31.8
07:10 1018 30.06 847 25.01 2 35.5 86 -0.2 31.7
07:15 1018 30.06 847 25.01 2 35.7 86 -0.1 31.8
07:20 1018 30.06 847 25.01 2.1 35.8 85 -0.2 31.7
07:25 1018 30.06 847 25.01 2 35.6 84 -0.4 31.2
07:30 1018 30.06 847 25.01 1.9 35.4 84 -0.5 31
07:35 1018 30.06 847 25.01 1.8 35.3 84 -0.6 30.9
07:40 1018 30.06 847 25.01 1.8 35.3 84 -0.6 30.9
07:45 1018 30.06 847 25.01 1.9 35.3 84 -0.5 31
07:50 1018 30.06 847 25.01 1.9 35.5 84 -0.6 31
07:55 1018 30.06 847 25.01 2 35.6 83 -0.6 30.9
08:00 1018 30.06 847 25.01 2.1 35.8 82 -0.6 31
08:05 1018 30.06 847 25.01 2.2 35.9 82 -0.6 30.9
08:10 1018 30.06 847 25.01 2.2 36 81 -0.7 30.7
08:15 1018 30.06 847 25.01 2.2 36 81 -0.7 30.8
08:20 1018 30.06 847 25.01 2.1 35.9 82 -0.6 30.9
08:25 1018 30.06 847 25.01 2 35.6 82 -0.8 30.6
08:30 1018 30.06 847 25.01 2.1 35.8 79 -1.1 30
08:35 1018 30.06 847 25.01 2.7 36.9 77 -1 30.2
08:40 1018 30.06 847 25.01 3.1 37.6 75 -0.9 30.3
08:45 1018 30.06 847 25.01 3.4 38.2 73 -0.9 30.4
08:50 1018 30.06 847 25.01 3.5 38.2 72 -1.1 30
08:55 1018 30.06 847 25.01 3.5 38.3 72 -1 30.1
09:00 1018 30.06 847 25.01 4 39.2 69 -1.2 29.8
09:05 1018 30.06 847 25.01 4.2 39.5 69 -1.1 30
09:10 1018 30.06 847 25.01 4.4 39.9 69 -0.7 30.7
09:15 1018 30.06 847 25.01 5 41.1 63 -1.3 29.6
09:20 1018 30.06 847 25.01 5.4 41.8 64 -0.7 30.7
09:25 1018 30.06 847 25.01 5.1 41.2 65 -1 30.3
09:30 1018 30.06 847 25.01 4.9 40.8 66 -0.8 30.5
09:35 1018 30.06 847 25.01 4.8 40.6 66 -1 30.2
09:40 1018 30.06 847 25.01 5 41 65 -1 30.2
09:45 1018 30.06 847 25.01 4.7 40.5 65 -1.3 29.7
09:50 1018 30.06 847 25.01 4.7 40.4 65 -1.3 29.7
09:55 1018 30.06 847 25.01 5.2 41.3 62 -1.6 29.2
10:00 1018 30.06 847 25.01 5.2 41.4 62 -1.5 29.3
10:05 1018 30.06 847 25.01 4.9 40.8 61 -2 28.4
10:10 1018 30.06 847 25.01 6.2 43.1 52 -2.9 26.9
10:15 1018 30.06 847 25.01 7.1 44.7 51 -2.4 27.6
10:20 1018 30.06 847 25.01 6.7 44.1 60 -0.5 31.1
10:25 1018 30.06 847 25.01 6.3 43.3 55 -2.1 28.2
10:30 1017 30.03 847 25.01 6.5 43.7 54 -2.2 28
10:35 1017 30.03 847 25.01 7.1 44.7 51 -2.2 28
10:40 1017 30.03 847 25.01 7.3 45.2 51 -2.1 28.2
10:45 1017 30.03 847 25.01 6.2 43.1 58 -1.4 29.4
10:50 1017 30.03 847 25.01 6.3 43.4 56 -1.8 28.7
10:55 1017 30.03 847 25.01 6.4 43.6 56 -1.7 28.9
11:00 1017 30.03 847 25.01 7 44.7 51 -2.5 27.4
11:05 1017 30.03 847 25.01 7.5 45.4 51 -2 28.5
11:10 1017 30.03 847 25.01 7.2 45 48 -3.2 26.3
11:15 1017 30.03 846 24.98 6.9 44.4 49 -3.1 26.3
11:20 1017 30.03 846 24.98 6.7 44 50 -3.1 26.4
11:25 1017 30.03 846 24.98 7.3 45.1 45 -3.8 25.1
11:30 1017 30.03 846 24.98 7.5 45.4 45 -3.6 25.5
11:35 1017 30.03 846 24.98 7.2 44.9 47 -3.5 25.7
11:40 1017 30.03 846 24.98 7.1 44.8 44 -4.4 24.2
11:45 1017 30.03 846 24.98 7.3 45.1 43 -4.3 24.2
11:50 1017 30.03 846 24.98 7.3 45.1 45 -3.9 25
11:55 1017 30.03 846 24.98 7.6 45.6 45 -3.7 25.4
12:00 1017 30.03 846 24.98 7.5 45.6 45 -3.7 25.4
12:05 1017 30.03 846 24.98 7.4 45.4 43 -4.2 24.5
12:10 1017 30.03 846 24.98 7.8 46 42 -4.2 24.5
12:15 1017 30.03 846 24.98 7.9 46.3 43 -3.9 25
12:20 1017 30.03 846 24.98 8 46.4 43 -3.9 24.9
12:25 1017 30.03 846 24.98 8.1 46.5 44 -3.4 25.9
12:30 1017 30.03 846 24.98 8.3 47 42 -3.7 25.3
12:35 1017 30.03 846 24.98 8.2 46.7 42 -3.9 24.9
12:40 1017 30.03 846 24.98 8.3 47 39 -4.8 23.4
12:45 1017 30.03 846 24.98 8.1 46.6 41 -4.4 24.1
12:50 1017 30.03 846 24.98 8.4 47.1 41 -4.2 24.4
12:55 1017 30.03 846 24.98 8.1 46.5 41 -4.5 23.9
13:00 1017 30.03 846 24.98 7.7 45.9 40 -4.9 23.2
13:05 1017 30.03 846 24.98 7.8 46.1 43 -4.1 24.7
13:10 1017 30.03 846 24.98 8.3 46.9 41 -4.3 24.3
13:15 1017 30.03 846 24.98 8.2 46.8 41 -4.2 24.5
13:20 1016 30 846 24.98 8.6 47.5 39 -4.6 23.8
13:25 1016 30 846 24.98 8.5 47.3 40 -4.4 24
13:30 1016 30 846 24.98 9.1 48.3 36 -5.4 22.4
13:35 1016 30 846 24.98 9.7 49.4 36 -4.8 23.4
13:40 1016 30 846 24.98 9.2 48.6 37 -4.7 23.6
13:45 1016 30 846 24.98 9.1 48.3 37 -4.9 23.3
13:50 1016 30 846 24.98 9.2 48.6 36 -5.1 22.8
13:55 1016 30 846 24.98 9.3 48.8 39 -3.8 25.1
14:00 1016 30 846 24.98 9.1 48.3 39 -4.3 24.3
14:05 1016 30 846 24.98 8.8 47.9 39 -4.3 24.3
14:10 1016 30 846 24.98 8.9 48 40 -3.9 25
14:15 1016 30 846 24.98 8.9 48.1 40 -4.1 24.7
14:20 1016 30 846 24.98 8.8 47.8 40 -4.1 24.6
14:25 1016 30 846 24.98 8.8 47.8 40 -4.1 24.6
14:30 1016 30 846 24.98 8.6 47.5 40 -4.3 24.3
14:35 1016 30 846 24.98 8.8 47.9 40 -3.9 24.9
14:40 1016 30 846 24.98 9.1 48.4 38 -4.5 23.9
14:45 1016 30 845 24.95 10 49.9 36 -4.4 24
14:50 1016 30 845 24.95 10.6 51 36 -3.7 25.3
14:55 1016 30 845 24.95 10.1 50.2 35 -4.5 23.9
15:00 1016 30 845 24.95 9.7 49.4 36 -4.6 23.8
15:05 1016 30 845 24.95 9.4 49 37 -4.6 23.8
15:10 1016 30 845 24.95 9.2 48.6 38 -4.5 23.9
15:15 1016 30 846 24.98 9.1 48.4 37 -4.8 23.4
15:20 1016 30 846 24.98 8.9 48 37 -5 23
15:25 1016 30 846 24.98 8.8 47.9 37 -5.1 22.9
15:30 1016 30 846 24.98 8.8 47.8 38 -4.6 23.7
15:35 1016 30 846 24.98 8.9 48 39 -4.3 24.3
15:40 1016 30 846 24.98 8.8 47.8 41 -3.8 25.2
15:45 1016 30 846 24.98 8.7 47.7 41 -3.9 25
15:50 1016 30 846 24.98 8.7 47.6 40 -4.3 24.3
15:55 1016 30 846 24.98 8.7 47.6 41 -3.9 24.9
16:00 1016 30 846 24.98 8.8 47.8 39 -4.3 24.3
16:05 1016 30 846 24.98 8.8 47.8 40 -4.1 24.7
16:10 1016 30 846 24.98 8.8 47.8 40 -4.2 24.4
16:15 1017 30.03 846 24.98 8.7 47.7 41 -3.8 25.2
16:20 1017 30.03 846 24.98 8.6 47.5 42 -3.6 25.5
16:25 1017 30.03 846 24.98 8.6 47.4 42 -3.5 25.6
16:30 1017 30.03 846 24.98 8.6 47.5 43 -3.3 26
16:35 1017 30.03 846 24.98 8.5 47.2 42 -3.7 25.3
16:40 1017 30.03 846 24.98 8.3 46.9 43 -3.6 25.5
16:45 1017 30.03 846 24.98 8.2 46.8 45 -3.1 26.4
16:50 1017 30.03 846 24.98 8.1 46.7 46 -2.9 26.8
16:55 1017 30.03 846 24.98 8.1 46.5 47 -2.6 27.2
17:00 1017 30.03 846 24.98 8 46.4 46 -2.9 26.7
17:05 1017 30.03 846 24.98 8 46.4 46 -2.8 26.9
17:10 1017 30.03 846 24.98 8.1 46.5 45 -3.2 26.2
17:15 1017 30.03 846 24.98 8.1 46.6 43 -3.6 25.6
17:20 1017 30.03 846 24.98 8.1 46.6 46 -2.8 27
17:25 1017 30.03 846 24.98 8 46.4 47 -2.6 27.2
17:30 1017 30.03 846 24.98 7.8 46 47 -2.9 26.8
17:35 1017 30.03 846 24.98 7.7 45.8 48 -2.7 27.2
17:40 1017 30.03 846 24.98 7.5 45.6 48 -2.6 27.3
17:45 1017 30.03 846 24.98 7.5 45.5 50 -2.4 27.8
17:50 1017 30.03 846 24.98 7.4 45.4 51 -2 28.4
17:55 1017 30.03 846 24.98 7.3 45.2 51 -2 28.4
18:00 1017 30.03 846 24.98 7.3 45.1 52 -1.8 28.8
18:05 1017 30.03 846 24.98 7.2 45 51 -2.2 28.1
18:10 1017 30.03 846 24.98 7.1 44.9 51 -2.2 28
18:15 1017 30.03 846 24.98 7.2 44.9 52 -2.1 28.2
18:20 1017 30.03 846 24.98 7.2 44.9 51 -2.2 28.1
18:25 1017 30.03 846 24.98 7.1 44.8 52 -1.9 28.5
18:30 1017 30.03 846 24.98 7 44.6 54 -1.8 28.8
18:35 1017 30.03 846 24.98 6.9 44.4 53 -2.1 28.3
18:40 1017 30.03 846 24.98 6.9 44.5 51 -2.6 27.4
18:45 1017 30.03 846 24.98 7.1 44.7 51 -2.4 27.7
18:50 1017 30.03 846 24.98 7 44.7 52 -2 28.3
18:55 1017 30.03 846 24.98 6.9 44.5 54 -1.8 28.8
19:00 1017 30.03 846 24.98 6.8 44.2 55 -1.5 29.3
19:05 1017 30.03 846 24.98 6.7 44 57 -1.4 29.6
19:10 1017 30.03 846 24.98 6.6 43.8 56 -1.5 29.4
19:15 1017 30.03 846 24.98 6.5 43.7 57 -1.3 29.6
19:20 1017 30.03 846 24.98 6.4 43.5 56 -1.7 28.9
19:25 1017 30.03 846 24.98 6.3 43.4 57 -1.6 29.2
19:30 1017 30.03 846 24.98 6.3 43.3 56 -1.7 28.9
19:35 1017 30.03 846 24.98 6.3 43.4 56 -1.8 28.7
19:40 1017 30.03 846 24.98 6.3 43.4 55 -2.1 28.1
19:45 1017 30.03 846 24.98 6.3 43.4 54 -2.3 27.8
19:50 1017 30.03 846 24.98 6.3 43.4 54 -2.3 27.8
19:55 1017 30.03 846 24.98 6.3 43.4 53 -2.5 27.6
20:00 1017 30.03 846 24.98 6.3 43.4 52 -2.8 27
20:05 1017 30.03 846 24.98 6.4 43.4 51 -3.1 26.4
20:10 1017 30.03 846 24.98 6.4 43.5 49 -3.5 25.7
20:15 1017 30.03 846 24.98 6.3 43.4 49 -3.6 25.5
20:20 1017 30.03 846 24.98 6.2 43.1 49 -3.7 25.4
20:25 1017 30.03 846 24.98 6 42.8 49 -3.7 25.3
20:30 1017 30.03 846 24.98 6 42.7 50 -3.7 25.4
20:35 1017 30.03 846 24.98 5.8 42.5 50 -3.7 25.3
20:40 1017 30.03 846 24.98 5.7 42.3 50 -3.9 24.9
20:45 1017 30.03 846 24.98 5.8 42.4 51 -3.6 25.5
20:50 1017 30.03 846 24.98 5.6 42.1 52 -3.4 25.9
20:55 1017 30.03 846 24.98 5.5 42 53 -3.2 26.2
21:00 1017 30.03 846 24.98 5.5 41.9 55 -2.8 27
21:05 1017 30.03 846 24.98 5.5 42 54 -3 26.6
21:10 1017 30.03 846 24.98 5.8 42.4 54 -2.8 27
21:15 1017 30.03 847 25.01 5.9 42.7 54 -2.7 27.2
21:20 1017 30.03 847 25.01 6.1 43 55 -2.4 27.8
21:25 1017 30.03 847 25.01 6.1 42.9 55 -2.2 28
21:30 1017 30.03 847 25.01 6.1 42.9 56 -2.1 28.3
21:35 1017 30.03 847 25.01 6.1 43 55 -2.3 27.8
21:40 1017 30.03 846 24.98 6.1 43 56 -2.1 28.2
21:45 1017 30.03 846 24.98 6.1 43 56 -1.9 28.6
21:50 1017 30.03 846 24.98 6.1 43 57 -1.7 29
21:55 1017 30.03 846 24.98 6.1 43 57 -1.7 29
22:00 1017 30.03 846 24.98 5.9 42.7 58 -1.7 28.9
22:05 1017 30.03 846 24.98 5.7 42.3 59 -1.6 29.1
22:10 1017 30.03 846 24.98 5.6 42.1 59 -1.7 28.9
22:15 1017 30.03 846 24.98 5.6 42.1 60 -1.5 29.3
22:20 1017 30.03 846 24.98 5.6 42.1 59 -1.7 29
22:25 1017 30.03 846 24.98 5.6 42 62 -1.2 29.9
22:30 1017 30.03 846 24.98 5.3 41.6 63 -1.1 30
22:35 1017 30.03 846 24.98 5.3 41.5 62 -1.4 29.5
22:40 1017 30.03 846 24.98 5.2 41.4 62 -1.4 29.4
22:45 1017 30.03 846 24.98 5.2 41.4 62 -1.4 29.5
22:50 1017 30.03 846 24.98 5.2 41.3 63 -1.2 29.8
22:55 1017 30.03 846 24.98 5.2 41.3 62 -1.4 29.5
23:00 1017 30.03 846 24.98 5.1 41.2 64 -1 30.2
23:05 1017 30.03 846 24.98 5.1 41.2 64 -1.2 29.9
23:10 1017 30.03 846 24.98 5.2 41.3 63 -1.3 29.6
23:15 1017 30.03 846 24.98 5.2 41.4 63 -1.3 29.7
23:20 1017 30.03 846 24.98 5.3 41.5 60 -1.8 28.7
23:25 1017 30.03 846 24.98 5.6 42 57 -2.3 27.9
23:30 1017 30.03 846 24.98 5.6 42.2 60 -1.5 29.3
23:35 1017 30.03 846 24.98 5.7 42.3 56 -2.4 27.8
23:40 1016 30 846 24.98 6.1 43 56 -2 28.3
23:45 1016 30 846 24.98 6.3 43.3 56 -1.9 28.6
23:50 1016 30 846 24.98 6.3 43.4 53 -2.5 27.5
23:55 1016 30 845 24.95 6.5 43.6 54 -2.3 27.9
24:00 1016 30 845 24.95 6.5 43.7 52 -2.5 27.5